S43 weather

Harvey Field
Snohomish, Washington, United States

Public forecast

Using degrees Fahrenheit for public forecast. Weather courtesy of forecast.io.

Closest aviation weather report (METAR) to Harvey Field

Closest report is Snohomish County (Paine Field) Airport, 7.1 nm (13.2 km) W. Retrieved 2019/10/23 21:53 UTC (36 minutes ago):

KPAE 232153Z 36005KT 10SM CLR 11/07 A3048 RMK AO2 SLP325 T01110067

Closest aviation forecast (TAF) to Harvey Field

Closest forecast is Snohomish County (Paine Field) Airport, 7.1 nm (13.2 km) W. Retrieved 2019/10/23 18:22 UTC (4 hours ago):

TAF KPAE 231720Z 2318/2418 06002KT P6SM SCT002 SCT030 TEMPO 2318/2319 2SM BR OVC001 FM232100 00000KT P6SM OVC250 FM241200 03004KT 4SM BR SCT004 SCT250